createdAt,value
2023-03-23T16:00:16.631Z,6.55
2023-03-23T16:02:43.716Z,5.90
2023-03-23T16:05:13.117Z,6.03
2023-03-23T16:07:39.794Z,5.80
2023-03-23T16:10:07.998Z,5.57
2023-03-23T16:12:34.605Z,6.38
2023-03-23T16:15:01.208Z,6.07
2023-03-23T16:17:27.836Z,5.72
2023-03-23T16:19:54.497Z,5.90
2023-03-23T16:22:21.377Z,5.28
2023-03-23T16:24:47.935Z,6.72
2023-03-23T16:27:14.745Z,6.07
2023-03-23T16:32:13.902Z,6.53
2023-03-23T16:34:40.562Z,6.03
2023-03-23T16:37:07.293Z,5.78
2023-03-23T16:39:33.946Z,5.60
2023-03-23T16:42:00.586Z,5.18
2023-03-23T16:44:27.200Z,5.35
2023-03-23T16:46:53.747Z,5.40
2023-03-23T16:49:20.366Z,5.75
2023-03-23T16:51:48.130Z,6.00
2023-03-23T16:54:14.764Z,5.78
2023-03-23T16:56:41.445Z,5.22
2023-03-23T16:59:08.126Z,5.15
2023-03-23T17:01:34.730Z,5.20
2023-03-23T17:04:01.386Z,5.20
2023-03-23T17:06:27.979Z,5.20
2023-03-23T17:08:54.605Z,5.18
2023-03-23T17:11:21.337Z,5.57
2023-03-23T17:13:48.263Z,5.10
2023-03-23T17:16:14.850Z,4.93
2023-03-23T17:18:41.540Z,4.68
2023-03-23T17:21:08.202Z,5.63
2023-03-23T17:23:35.128Z,5.13
2023-03-23T17:26:01.881Z,5.38
2023-03-23T17:28:28.782Z,5.90
2023-03-23T17:30:55.623Z,5.20
2023-03-23T17:33:22.194Z,5.93
2023-03-23T17:35:51.754Z,6.05
2023-03-23T17:38:18.721Z,6.72
2023-03-23T17:40:45.332Z,6.53
2023-03-23T17:43:12.051Z,6.38
2023-03-23T17:45:38.811Z,5.93
2023-03-23T17:48:07.690Z,5.72
2023-03-23T17:50:35.611Z,5.95
2023-03-23T17:53:02.186Z,6.83
2023-03-23T17:55:28.802Z,13.68
2023-03-23T17:57:55.449Z,30.65
2023-03-23T18:00:22.245Z,30.60
2023-03-23T18:02:48.968Z,46.42
2023-03-23T18:05:16.000Z,42.27
2023-03-23T18:07:42.672Z,27.42
2023-03-23T18:10:12.540Z,13.45
2023-03-23T18:12:40.889Z,12.63
2023-03-23T18:15:09.018Z,16.70
2023-03-23T18:17:35.990Z,12.67
2023-03-23T18:20:03.926Z,8.43
2023-03-23T18:22:30.644Z,6.88
2023-03-23T18:24:58.361Z,6.55
2023-03-23T18:27:25.095Z,6.80
2023-03-23T18:29:51.702Z,7.33
2023-03-23T18:32:19.665Z,9.32
2023-03-23T18:34:46.848Z,9.65
2023-03-23T18:37:13.647Z,10.57
2023-03-23T18:39:40.226Z,8.57
2023-03-23T18:42:06.817Z,16.47
2023-03-23T18:44:33.616Z,23.25
2023-03-23T18:47:00.197Z,18.10
2023-03-23T18:49:28.420Z,10.13
2023-03-23T18:51:55.014Z,7.72
2023-03-23T18:54:21.669Z,6.40
2023-03-23T18:56:48.338Z,6.03
2023-03-23T18:59:14.861Z,5.78
2023-03-23T19:01:41.505Z,6.10
2023-03-23T19:04:08.179Z,5.70
2023-03-23T19:06:35.119Z,6.10
2023-03-23T19:09:02.135Z,6.30
2023-03-23T19:11:28.868Z,6.50
2023-03-23T19:14:02.176Z,5.70
2023-03-23T19:16:31.100Z,6.15
2023-03-23T19:18:57.935Z,6.47
2023-03-23T19:21:25.758Z,7.50
2023-03-23T19:23:54.579Z,7.90
2023-03-23T19:26:36.626Z,9.30
2023-03-23T19:31:35.453Z,9.70
2023-03-23T19:34:02.225Z,9.65
2023-03-23T19:36:28.827Z,9.35
2023-03-23T19:38:57.596Z,9.93
2023-03-23T19:41:27.035Z,11.80
2023-03-23T19:43:54.840Z,12.23
2023-03-23T19:46:22.264Z,9.38
2023-03-23T19:48:49.034Z,7.43
2023-03-23T19:51:18.784Z,5.63
2023-03-23T19:53:46.404Z,5.82
2023-03-23T19:56:15.449Z,6.40
2023-03-23T19:58:42.312Z,8.18
2023-03-23T20:01:09.152Z,7.90
2023-03-23T20:03:36.867Z,8.73
2023-03-23T20:06:11.026Z,11.60
2023-03-23T20:08:43.334Z,16.20
2023-03-23T20:11:17.635Z,15.57
2023-03-23T20:13:45.900Z,12.63
2023-03-23T20:16:12.586Z,11.55
2023-03-23T20:18:40.382Z,8.65
2023-03-23T20:21:13.418Z,8.33
2023-03-23T20:23:42.163Z,8.80
2023-03-23T20:26:13.015Z,10.65
2023-03-23T20:28:40.789Z,10.93
2023-03-23T20:31:24.298Z,14.60
2023-03-23T20:33:59.825Z,13.93
2023-03-23T20:36:34.622Z,11.23
2023-03-23T20:39:05.401Z,10.65
2023-03-23T20:41:35.755Z,12.30
2023-03-23T20:44:02.655Z,16.33
2023-03-23T20:46:29.266Z,17.20
2023-03-23T20:48:55.922Z,13.45
2023-03-23T20:51:22.905Z,19.38
2023-03-23T20:53:50.081Z,21.67
2023-03-23T20:56:16.847Z,19.23
2023-03-23T20:58:43.517Z,15.37
2023-03-23T21:01:10.786Z,12.55
2023-03-23T21:03:42.094Z,8.88
2023-03-23T21:06:08.808Z,6.40
2023-03-23T21:08:37.495Z,5.90
2023-03-23T21:11:05.869Z,4.37
2023-03-23T21:13:32.998Z,4.28
2023-03-23T21:16:02.180Z,4.68
2023-03-23T21:18:30.008Z,5.00
2023-03-23T21:20:57.220Z,4.95
2023-03-23T21:23:26.501Z,4.47
2023-03-23T21:25:54.563Z,4.38
2023-03-23T21:28:22.085Z,4.28
2023-03-23T21:30:50.940Z,4.38
2023-03-23T21:33:17.778Z,4.45
2023-03-23T21:35:44.389Z,4.23
2023-03-23T21:38:19.980Z,3.97
2023-03-23T21:40:46.817Z,4.32
2023-03-23T21:43:16.407Z,4.15
2023-03-23T21:45:44.618Z,4.60
2023-03-23T21:48:12.902Z,4.20
2023-03-23T21:50:44.224Z,4.40
2023-03-23T21:53:18.019Z,4.55
2023-03-23T21:55:51.738Z,4.22
2023-03-23T21:58:20.010Z,4.50
2023-03-23T22:00:47.486Z,4.90
2023-03-23T22:03:23.324Z,5.05
2023-03-23T22:05:56.849Z,5.00
2023-03-23T22:08:28.821Z,4.30
2023-03-23T22:11:07.263Z,5.82
2023-03-23T22:13:36.162Z,5.10
2023-03-23T22:16:05.607Z,4.90
2023-03-23T22:18:34.684Z,5.72
2023-03-23T22:21:01.439Z,5.53
2023-03-23T22:23:28.219Z,4.80
2023-03-23T22:25:56.661Z,4.83
2023-03-23T22:28:26.334Z,5.13
2023-03-23T22:31:04.561Z,5.30
2023-03-23T22:33:32.027Z,4.70
2023-03-23T22:36:00.130Z,5.30
2023-03-23T22:38:26.933Z,5.67
2023-03-23T22:41:02.265Z,4.70
2023-03-23T22:43:29.291Z,6.10
2023-03-23T22:45:56.222Z,5.45
2023-03-23T22:48:24.666Z,5.63
2023-03-23T22:50:51.352Z,4.23
2023-03-23T22:53:18.718Z,4.50
2023-03-23T22:55:47.943Z,5.03
2023-03-23T22:58:15.944Z,5.00
2023-03-23T23:00:48.247Z,5.28
2023-03-23T23:03:16.565Z,4.97
2023-03-23T23:05:45.508Z,5.05
2023-03-23T23:08:14.662Z,4.75
2023-03-23T23:10:45.738Z,4.88
2023-03-23T23:13:13.654Z,5.45
2023-03-23T23:15:44.320Z,5.13
2023-03-23T23:18:12.356Z,5.63
2023-03-23T23:20:39.220Z,5.38
2023-03-23T23:23:06.095Z,5.80
2023-03-23T23:25:33.307Z,5.13
2023-03-23T23:28:01.435Z,5.40
2023-03-23T23:30:29.158Z,5.72
2023-03-23T23:32:56.782Z,5.68
2023-03-23T23:35:23.860Z,5.90
2023-03-23T23:37:50.762Z,5.22
2023-03-23T23:40:18.644Z,4.73
2023-03-23T23:42:47.620Z,4.90
2023-03-23T23:45:15.549Z,4.75
2023-03-23T23:47:42.687Z,4.72
2023-03-23T23:50:11.529Z,4.93
2023-03-23T23:52:39.608Z,3.90
2023-03-23T23:55:08.961Z,4.25
2023-03-23T23:57:35.815Z,4.45
